sensor_id;sensor_type;location;lat;lon;timestamp;pressure;altitude;pressure_sealevel;temperature;humidity
22862;BME280;11598;50.652;6.172;2023-04-05T00:00:16;97089.63;;;-1.51;77.97
22862;BME280;11598;50.652;6.172;2023-04-05T00:10:16;97082.13;;;-1.58;78.80
22862;BME280;11598;50.652;6.172;2023-04-05T00:20:17;97066.00;;;-1.59;79.01
22862;BME280;11598;50.652;6.172;2023-04-05T00:30:17;97066.91;;;-1.61;79.04
22862;BME280;11598;50.652;6.172;2023-04-05T00:40:20;97058.28;;;-1.56;78.03
22862;BME280;11598;50.652;6.172;2023-04-05T00:50:21;97048.19;;;-1.60;78.13
22862;BME280;11598;50.652;6.172;2023-04-05T01:00:21;97049.19;;;-1.69;78.21
22862;BME280;11598;50.652;6.172;2023-04-05T01:10:26;97044.28;;;-1.81;79.57
22862;BME280;11598;50.652;6.172;2023-04-05T01:20:32;97040.13;;;-1.87;80.11
22862;BME280;11598;50.652;6.172;2023-04-05T01:30:38;97026.56;;;-1.87;80.68
22862;BME280;11598;50.652;6.172;2023-04-05T01:40:40;97023.28;;;-1.94;80.89
22862;BME280;11598;50.652;6.172;2023-04-05T01:50:41;97020.13;;;-2.10;80.50
22862;BME280;11598;50.652;6.172;2023-04-05T02:00:41;97017.69;;;-2.18;81.12
22862;BME280;11598;50.652;6.172;2023-04-05T02:10:42;97017.78;;;-2.24;81.63
22862;BME280;11598;50.652;6.172;2023-04-05T02:20:43;97011.16;;;-2.34;82.07
22862;BME280;11598;50.652;6.172;2023-04-05T02:30:43;97006.19;;;-2.43;82.41
22862;BME280;11598;50.652;6.172;2023-04-05T02:40:47;97008.84;;;-2.52;82.26
22862;BME280;11598;50.652;6.172;2023-04-05T02:50:49;96997.97;;;-2.61;82.58
22862;BME280;11598;50.652;6.172;2023-04-05T03:00:51;96994.66;;;-2.67;83.26
22862;BME280;11598;50.652;6.172;2023-04-05T03:10:53;96995.59;;;-2.76;84.18
22862;BME280;11598;50.652;6.172;2023-04-05T03:20:55;96986.34;;;-2.80;84.11
22862;BME280;11598;50.652;6.172;2023-04-05T03:30:56;96997.38;;;-2.81;84.12
22862;BME280;11598;50.652;6.172;2023-04-05T03:40:57;96994.00;;;-2.82;84.24
22862;BME280;11598;50.652;6.172;2023-04-05T03:50:57;96978.81;;;-2.88;84.50
22862;BME280;11598;50.652;6.172;2023-04-05T04:00:57;96967.91;;;-2.96;85.19
22862;BME280;11598;50.652;6.172;2023-04-05T04:10:58;96974.00;;;-3.08;85.80
22862;BME280;11598;50.652;6.172;2023-04-05T04:21:01;96970.69;;;-3.16;86.03
22862;BME280;11598;50.652;6.172;2023-04-05T04:31:10;96964.00;;;-3.25;86.32
22862;BME280;11598;50.652;6.172;2023-04-05T04:41:12;96962.44;;;-3.33;86.43
22862;BME280;11598;50.652;6.172;2023-04-05T04:51:13;96956.47;;;-3.32;86.92
22862;BME280;11598;50.652;6.172;2023-04-05T05:01:13;96961.56;;;-3.32;86.49
22862;BME280;11598;50.652;6.172;2023-04-05T05:11:13;96965.81;;;-3.34;86.64
22862;BME280;11598;50.652;6.172;2023-04-05T05:21:14;96968.25;;;-3.25;86.82
22862;BME280;11598;50.652;6.172;2023-04-05T05:31:14;96965.28;;;-2.90;87.34
22862;BME280;11598;50.652;6.172;2023-04-05T05:41:17;96960.47;;;-2.48;87.46
22862;BME280;11598;50.652;6.172;2023-04-05T05:51:17;96952.97;;;-2.03;86.90
22862;BME280;11598;50.652;6.172;2023-04-05T06:01:18;96953.38;;;-1.31;86.44
22862;BME280;11598;50.652;6.172;2023-04-05T06:11:22;96960.38;;;-0.58;85.80
22862;BME280;11598;50.652;6.172;2023-04-05T06:21:23;96942.59;;;0.10;84.41
22862;BME280;11598;50.652;6.172;2023-04-05T06:31:30;96946.56;;;0.84;82.45
22862;BME280;11598;50.652;6.172;2023-04-05T06:41:31;96947.41;;;1.44;80.37
22862;BME280;11598;50.652;6.172;2023-04-05T06:51:31;96935.47;;;2.23;78.75
22862;BME280;11598;50.652;6.172;2023-04-05T07:01:31;96937.81;;;3.27;75.48
22862;BME280;11598;50.652;6.172;2023-04-05T07:11:32;96935.16;;;4.16;67.67
22862;BME280;11598;50.652;6.172;2023-04-05T07:21:32;96928.91;;;5.40;61.70
22862;BME280;11598;50.652;6.172;2023-04-05T07:41:35;96931.53;;;5.58;55.81
22862;BME280;11598;50.652;6.172;2023-04-05T07:51:36;96938.78;;;5.49;54.15
22862;BME280;11598;50.652;6.172;2023-04-05T08:01:37;96941.25;;;4.75;53.95
22862;BME280;11598;50.652;6.172;2023-04-05T08:11:37;96961.84;;;4.34;54.48
22862;BME280;11598;50.652;6.172;2023-04-05T08:21:38;96940.13;;;4.21;54.59
22862;BME280;11598;50.652;6.172;2023-04-05T08:31:38;96953.50;;;4.29;55.26
22862;BME280;11598;50.652;6.172;2023-04-05T08:41:40;96947.31;;;4.13;54.90
22862;BME280;11598;50.652;6.172;2023-04-05T08:51:47;96936.69;;;4.20;56.21
22862;BME280;11598;50.652;6.172;2023-04-05T09:01:48;96933.81;;;4.28;56.26
22862;BME280;11598;50.652;6.172;2023-04-05T09:11:51;96934.56;;;4.51;56.64
22862;BME280;11598;50.652;6.172;2023-04-05T09:22:05;96932.03;;;4.70;55.29
22862;BME280;11598;50.652;6.172;2023-04-05T09:32:08;96935.72;;;4.64;53.98
22862;BME280;11598;50.652;6.172;2023-04-05T09:52:25;96941.31;;;4.74;54.03
22862;BME280;11598;50.652;6.172;2023-04-05T10:02:34;96941.81;;;5.01;53.93
22862;BME280;11598;50.652;6.172;2023-04-05T10:12:39;96931.97;;;5.11;52.75
22862;BME280;11598;50.652;6.172;2023-04-05T10:22:54;96926.06;;;5.08;53.08
22862;BME280;11598;50.652;6.172;2023-04-05T10:33:10;96928.44;;;5.13;51.95
22862;BME280;11598;50.652;6.172;2023-04-05T10:43:16;96920.81;;;5.10;51.44
22862;BME280;11598;50.652;6.172;2023-04-05T10:53:19;96909.78;;;5.27;52.34
22862;BME280;11598;50.652;6.172;2023-04-05T11:13:48;96903.25;;;5.56;51.92
22862;BME280;11598;50.652;6.172;2023-04-05T11:34:03;96884.06;;;5.62;51.98
22862;BME280;11598;50.652;6.172;2023-04-05T11:44:13;96882.53;;;5.77;49.33
22862;BME280;11598;50.652;6.172;2023-04-05T11:54:30;96859.31;;;5.77;47.89
22862;BME280;11598;50.652;6.172;2023-04-05T12:04:30;96855.88;;;5.76;47.42
22862;BME280;11598;50.652;6.172;2023-04-05T12:14:31;96848.63;;;6.02;47.68
22862;BME280;11598;50.652;6.172;2023-04-05T12:24:31;96831.72;;;6.13;49.38
22862;BME280;11598;50.652;6.172;2023-04-05T12:34:35;96839.59;;;6.28;49.75
22862;BME280;11598;50.652;6.172;2023-04-05T12:44:35;96828.53;;;6.26;48.26
22862;BME280;11598;50.652;6.172;2023-04-05T12:54:37;96818.47;;;6.37;47.66
22862;BME280;11598;50.652;6.172;2023-04-05T13:04:37;96817.16;;;6.46;47.13
22862;BME280;11598;50.652;6.172;2023-04-05T13:14:38;96799.53;;;6.70;47.92
22862;BME280;11598;50.652;6.172;2023-04-05T13:24:38;96804.56;;;6.73;46.78
22862;BME280;11598;50.652;6.172;2023-04-05T13:34:39;96787.97;;;6.61;47.71
22862;BME280;11598;50.652;6.172;2023-04-05T13:44:39;96780.38;;;6.74;47.54
22862;BME280;11598;50.652;6.172;2023-04-05T13:54:40;96758.91;;;6.73;46.43
22862;BME280;11598;50.652;6.172;2023-04-05T14:04:40;96748.66;;;6.88;46.79
22862;BME280;11598;50.652;6.172;2023-04-05T14:14:41;96744.38;;;7.03;46.96
22862;BME280;11598;50.652;6.172;2023-04-05T14:24:41;96736.75;;;7.01;46.47
22862;BME280;11598;50.652;6.172;2023-04-05T14:34:41;96725.91;;;7.10;47.36
22862;BME280;11598;50.652;6.172;2023-04-05T14:44:42;96716.66;;;7.06;48.69
22862;BME280;11598;50.652;6.172;2023-04-05T14:54:42;96717.72;;;7.02;47.87
22862;BME280;11598;50.652;6.172;2023-04-05T15:04:44;96700.41;;;7.04;47.05
22862;BME280;11598;50.652;6.172;2023-04-05T15:14:44;96705.75;;;7.01;48.87
22862;BME280;11598;50.652;6.172;2023-04-05T15:24:45;96706.00;;;6.96;48.93
22862;BME280;11598;50.652;6.172;2023-04-05T15:34:45;96693.66;;;6.86;47.95
22862;BME280;11598;50.652;6.172;2023-04-05T15:44:46;96694.09;;;6.78;48.78
22862;BME280;11598;50.652;6.172;2023-04-05T15:54:47;96691.09;;;6.70;49.00
22862;BME280;11598;50.652;6.172;2023-04-05T16:04:47;96680.03;;;6.68;49.18
22862;BME280;11598;50.652;6.172;2023-04-05T16:14:48;96680.56;;;6.59;49.79
22862;BME280;11598;50.652;6.172;2023-04-05T16:24:48;96687.47;;;6.42;50.51
22862;BME280;11598;50.652;6.172;2023-04-05T16:34:48;96683.28;;;6.24;49.53
22862;BME280;11598;50.652;6.172;2023-04-05T16:44:49;96683.78;;;6.14;49.24
22862;BME280;11598;50.652;6.172;2023-04-05T16:54:49;96677.44;;;6.20;48.82
22862;BME280;11598;50.652;6.172;2023-04-05T17:04:49;96680.53;;;6.27;48.49
22862;BME280;11598;50.652;6.172;2023-04-05T17:14:50;96685.59;;;6.12;49.23
22862;BME280;11598;50.652;6.172;2023-04-05T17:24:50;96683.91;;;5.96;49.73
22862;BME280;11598;50.652;6.172;2023-04-05T17:34:51;96678.00;;;5.76;50.35
22862;BME280;11598;50.652;6.172;2023-04-05T17:44:51;96691.09;;;5.56;51.19
22862;BME280;11598;50.652;6.172;2023-04-05T17:54:52;96688.50;;;5.38;51.84
22862;BME280;11598;50.652;6.172;2023-04-05T18:04:53;96688.91;;;5.13;52.30
22862;BME280;11598;50.652;6.172;2023-04-05T18:14:53;96683.94;;;4.91;52.84
22862;BME280;11598;50.652;6.172;2023-04-05T18:24:54;96692.78;;;4.68;53.80
22862;BME280;11598;50.652;6.172;2023-04-05T18:34:54;96695.50;;;4.46;54.95
22862;BME280;11598;50.652;6.172;2023-04-05T18:44:55;96704.53;;;3.79;57.63
22862;BME280;11598;50.652;6.172;2023-04-05T18:54:55;96708.81;;;3.17;60.70
22862;BME280;11598;50.652;6.172;2023-04-05T19:04:57;96719.06;;;2.74;62.12
22862;BME280;11598;50.652;6.172;2023-04-05T19:14:57;96723.66;;;2.44;63.46
22862;BME280;11598;50.652;6.172;2023-04-05T19:24:58;96727.44;;;2.12;64.73
22862;BME280;11598;50.652;6.172;2023-04-05T19:35:00;96723.16;;;1.87;65.87
22862;BME280;11598;50.652;6.172;2023-04-05T19:45:00;96727.28;;;1.68;66.22
22862;BME280;11598;50.652;6.172;2023-04-05T19:55:25;96719.16;;;1.55;66.41
22862;BME280;11598;50.652;6.172;2023-04-05T20:06:04;96707.69;;;1.42;66.88
22862;BME280;11598;50.652;6.172;2023-04-05T20:16:05;96708.16;;;1.28;66.79
22862;BME280;11598;50.652;6.172;2023-04-05T20:26:07;96703.22;;;1.22;66.86
22862;BME280;11598;50.652;6.172;2023-04-05T20:36:07;96702.75;;;1.11;67.23
22862;BME280;11598;50.652;6.172;2023-04-05T20:46:10;96703.28;;;0.94;67.63
22862;BME280;11598;50.652;6.172;2023-04-05T20:56:11;96688.34;;;0.81;67.88
22862;BME280;11598;50.652;6.172;2023-04-05T21:06:12;96688.78;;;0.68;68.62
22862;BME280;11598;50.652;6.172;2023-04-05T21:16:12;96689.97;;;0.57;69.23
22862;BME280;11598;50.652;6.172;2023-04-05T21:26:12;96684.38;;;0.45;69.49
22862;BME280;11598;50.652;6.172;2023-04-05T21:36:13;96671.66;;;0.43;69.66
22862;BME280;11598;50.652;6.172;2023-04-05T21:46:13;96677.56;;;0.45;69.35
22862;BME280;11598;50.652;6.172;2023-04-05T21:56:14;96675.28;;;0.36;69.89
22862;BME280;11598;50.652;6.172;2023-04-05T22:06:15;96672.91;;;0.30;70.22
22862;BME280;11598;50.652;6.172;2023-04-05T22:16:15;96660.31;;;0.24;70.07
22862;BME280;11598;50.652;6.172;2023-04-05T22:26:16;96661.38;;;0.16;69.99
22862;BME280;11598;50.652;6.172;2023-04-05T22:36:16;96645.44;;;0.08;70.42
22862;BME280;11598;50.652;6.172;2023-04-05T22:46:17;96655.94;;;-0.01;70.90
22862;BME280;11598;50.652;6.172;2023-04-05T22:56:17;96645.81;;;-0.04;70.78
22862;BME280;11598;50.652;6.172;2023-04-05T23:06:20;96641.78;;;-0.11;70.98
22862;BME280;11598;50.652;6.172;2023-04-05T23:16:20;96625.94;;;-0.24;71.39
22862;BME280;11598;50.652;6.172;2023-04-05T23:26:21;96619.56;;;-0.39;72.11
22862;BME280;11598;50.652;6.172;2023-04-05T23:36:21;96613.84;;;-0.47;72.08
22862;BME280;11598;50.652;6.172;2023-04-05T23:46:21;96611.47;;;-0.53;72.97
22862;BME280;11598;50.652;6.172;2023-04-05T23:56:22;96599.66;;;-0.57;73.10
